sensor_id;sensor_type;location;lat;lon;timestamp;temperature;humidity
23744;DHT22;12052;53.478;10.182;2023-02-02T00:01:16;5.40;99.90
23744;DHT22;12052;53.478;10.182;2023-02-02T00:03:42;5.40;99.90
23744;DHT22;12052;53.478;10.182;2023-02-02T00:06:08;5.40;99.90
23744;DHT22;12052;53.478;10.182;2023-02-02T00:08:33;5.40;99.90
23744;DHT22;12052;53.478;10.182;2023-02-02T00:11:00;5.40;99.90
23744;DHT22;12052;53.478;10.182;2023-02-02T00:13:26;5.40;99.90
23744;DHT22;12052;53.478;10.182;2023-02-02T00:15:52;5.40;99.90
23744;DHT22;12052;53.478;10.182;2023-02-02T00:18:18;5.50;99.90
23744;DHT22;12052;53.478;10.182;2023-02-02T00:20:43;5.50;99.90
23744;DHT22;12052;53.478;10.182;2023-02-02T00:23:09;5.50;99.90
23744;DHT22;12052;53.478;10.182;2023-02-02T00:25:35;5.50;99.90
23744;DHT22;12052;53.478;10.182;2023-02-02T00:28:00;5.60;99.90
23744;DHT22;12052;53.478;10.182;2023-02-02T00:30:26;5.60;99.90
23744;DHT22;12052;53.478;10.182;2023-02-02T00:32:52;5.60;99.90
23744;DHT22;12052;53.478;10.182;2023-02-02T00:35:19;5.60;99.90
23744;DHT22;12052;53.478;10.182;2023-02-02T00:37:45;5.60;99.90
23744;DHT22;12052;53.478;10.182;2023-02-02T00:40:10;5.60;99.90
23744;DHT22;12052;53.478;10.182;2023-02-02T00:42:36;5.60;99.90
23744;DHT22;12052;53.478;10.182;2023-02-02T00:45:03;5.50;99.90
23744;DHT22;12052;53.478;10.182;2023-02-02T00:47:45;5.50;99.90
23744;DHT22;12052;53.478;10.182;2023-02-02T00:50:14;5.60;99.90
23744;DHT22;12052;53.478;10.182;2023-02-02T00:52:40;5.50;99.90
23744;DHT22;12052;53.478;10.182;2023-02-02T00:55:07;5.50;99.90
23744;DHT22;12052;53.478;10.182;2023-02-02T00:57:32;5.50;99.90
23744;DHT22;12052;53.478;10.182;2023-02-02T00:59:58;5.50;99.90
23744;DHT22;12052;53.478;10.182;2023-02-02T01:02:24;5.50;99.90
23744;DHT22;12052;53.478;10.182;2023-02-02T01:04:49;5.50;99.90
23744;DHT22;12052;53.478;10.182;2023-02-02T01:07:15;5.50;99.90
23744;DHT22;12052;53.478;10.182;2023-02-02T01:09:40;5.50;99.90
23744;DHT22;12052;53.478;10.182;2023-02-02T01:12:06;5.50;99.90
23744;DHT22;12052;53.478;10.182;2023-02-02T01:14:31;5.50;99.90
23744;DHT22;12052;53.478;10.182;2023-02-02T01:16:57;5.50;99.90
23744;DHT22;12052;53.478;10.182;2023-02-02T01:19:23;5.50;99.90
23744;DHT22;12052;53.478;10.182;2023-02-02T01:21:48;5.50;99.90
23744;DHT22;12052;53.478;10.182;2023-02-02T01:24:15;5.50;99.90
23744;DHT22;12052;53.478;10.182;2023-02-02T01:26:41;5.40;99.90
23744;DHT22;12052;53.478;10.182;2023-02-02T01:29:06;5.40;99.90
23744;DHT22;12052;53.478;10.182;2023-02-02T01:31:32;5.40;99.90
23744;DHT22;12052;53.478;10.182;2023-02-02T01:33:58;5.40;99.90
23744;DHT22;12052;53.478;10.182;2023-02-02T01:36:24;5.40;99.90
23744;DHT22;12052;53.478;10.182;2023-02-02T01:38:50;5.40;99.90
23744;DHT22;12052;53.478;10.182;2023-02-02T01:41:19;5.40;99.90
23744;DHT22;12052;53.478;10.182;2023-02-02T01:46:18;5.40;99.90
23744;DHT22;12052;53.478;10.182;2023-02-02T01:48:58;5.40;99.90
23744;DHT22;12052;53.478;10.182;2023-02-02T01:51:31;5.40;99.90
23744;DHT22;12052;53.478;10.182;2023-02-02T01:53:59;5.40;99.90
23744;DHT22;12052;53.478;10.182;2023-02-02T01:56:40;5.40;99.90
23744;DHT22;12052;53.478;10.182;2023-02-02T01:59:09;5.40;99.90
23744;DHT22;12052;53.478;10.182;2023-02-02T02:01:35;5.40;99.90
23744;DHT22;12052;53.478;10.182;2023-02-02T02:04:01;5.30;99.90
23744;DHT22;12052;53.478;10.182;2023-02-02T02:06:27;5.30;99.90
23744;DHT22;12052;53.478;10.182;2023-02-02T02:08:59;5.30;99.90
23744;DHT22;12052;53.478;10.182;2023-02-02T02:11:27;5.30;99.90
23744;DHT22;12052;53.478;10.182;2023-02-02T02:13:54;5.30;99.90
23744;DHT22;12052;53.478;10.182;2023-02-02T02:16:45;5.30;99.90
23744;DHT22;12052;53.478;10.182;2023-02-02T02:22:03;5.30;99.90
23744;DHT22;12052;53.478;10.182;2023-02-02T02:33:46;5.00;99.90
23744;DHT22;12052;53.478;10.182;2023-02-02T02:36:24;5.00;99.90
23744;DHT22;12052;53.478;10.182;2023-02-02T02:41:47;5.00;99.90
23744;DHT22;12052;53.478;10.182;2023-02-02T02:44:15;5.00;99.90
23744;DHT22;12052;53.478;10.182;2023-02-02T02:46:42;5.00;99.90
23744;DHT22;12052;53.478;10.182;2023-02-02T02:49:10;5.00;99.90
23744;DHT22;12052;53.478;10.182;2023-02-02T02:51:49;4.90;99.90
23744;DHT22;12052;53.478;10.182;2023-02-02T02:54:18;5.00;99.90
23744;DHT22;12052;53.478;10.182;2023-02-02T03:02:40;5.00;99.90
23744;DHT22;12052;53.478;10.182;2023-02-02T03:10:46;5.00;99.90
23744;DHT22;12052;53.478;10.182;2023-02-02T03:13:12;5.00;99.90
23744;DHT22;12052;53.478;10.182;2023-02-02T03:15:43;5.00;99.90
23744;DHT22;12052;53.478;10.182;2023-02-02T03:18:13;5.10;99.90
23744;DHT22;12052;53.478;10.182;2023-02-02T03:20:40;5.10;99.90
23744;DHT22;12052;53.478;10.182;2023-02-02T03:23:07;5.10;99.90
23744;DHT22;12052;53.478;10.182;2023-02-02T03:25:32;5.20;99.90
23744;DHT22;12052;53.478;10.182;2023-02-02T03:27:58;5.20;99.90
23744;DHT22;12052;53.478;10.182;2023-02-02T03:30:24;5.20;99.90
23744;DHT22;12052;53.478;10.182;2023-02-02T03:32:51;5.30;99.90
23744;DHT22;12052;53.478;10.182;2023-02-02T03:35:17;5.30;99.90
23744;DHT22;12052;53.478;10.182;2023-02-02T03:37:45;5.30;99.90
23744;DHT22;12052;53.478;10.182;2023-02-02T03:40:10;5.30;99.90
23744;DHT22;12052;53.478;10.182;2023-02-02T03:42:36;5.30;99.90
23744;DHT22;12052;53.478;10.182;2023-02-02T03:45:01;5.30;99.90
23744;DHT22;12052;53.478;10.182;2023-02-02T03:47:28;5.30;99.90
23744;DHT22;12052;53.478;10.182;2023-02-02T03:49:54;5.30;99.90
23744;DHT22;12052;53.478;10.182;2023-02-02T03:52:20;5.30;99.90
23744;DHT22;12052;53.478;10.182;2023-02-02T03:54:45;5.30;99.90
23744;DHT22;12052;53.478;10.182;2023-02-02T03:57:11;5.30;99.90
23744;DHT22;12052;53.478;10.182;2023-02-02T03:59:37;5.30;99.90
23744;DHT22;12052;53.478;10.182;2023-02-02T04:02:02;5.30;99.90
23744;DHT22;12052;53.478;10.182;2023-02-02T04:04:28;5.20;99.90
23744;DHT22;12052;53.478;10.182;2023-02-02T04:06:53;5.20;99.90
23744;DHT22;12052;53.478;10.182;2023-02-02T04:09:19;5.20;99.90
23744;DHT22;12052;53.478;10.182;2023-02-02T04:11:44;5.20;99.90
23744;DHT22;12052;53.478;10.182;2023-02-02T04:14:10;5.20;99.90
23744;DHT22;12052;53.478;10.182;2023-02-02T04:16:36;5.20;99.90
23744;DHT22;12052;53.478;10.182;2023-02-02T04:19:03;5.20;99.90
23744;DHT22;12052;53.478;10.182;2023-02-02T04:21:28;5.20;99.90
23744;DHT22;12052;53.478;10.182;2023-02-02T04:23:55;5.10;99.90
23744;DHT22;12052;53.478;10.182;2023-02-02T04:26:21;5.10;99.90
23744;DHT22;12052;53.478;10.182;2023-02-02T04:28:50;5.10;99.90
23744;DHT22;12052;53.478;10.182;2023-02-02T04:31:15;5.10;99.90
23744;DHT22;12052;53.478;10.182;2023-02-02T04:33:41;5.10;99.90
23744;DHT22;12052;53.478;10.182;2023-02-02T04:36:06;5.20;99.90
23744;DHT22;12052;53.478;10.182;2023-02-02T04:38:32;5.20;99.90
23744;DHT22;12052;53.478;10.182;2023-02-02T04:40:58;5.20;99.90
23744;DHT22;12052;53.478;10.182;2023-02-02T04:43:23;5.10;99.90
23744;DHT22;12052;53.478;10.182;2023-02-02T04:45:54;5.10;99.90
23744;DHT22;12052;53.478;10.182;2023-02-02T04:48:20;5.00;99.90
23744;DHT22;12052;53.478;10.182;2023-02-02T04:50:45;4.90;99.90
23744;DHT22;12052;53.478;10.182;2023-02-02T04:53:11;4.90;99.90
23744;DHT22;12052;53.478;10.182;2023-02-02T04:55:37;4.80;99.90
23744;DHT22;12052;53.478;10.182;2023-02-02T04:58:03;4.70;99.90
23744;DHT22;12052;53.478;10.182;2023-02-02T05:00:29;4.70;99.90
23744;DHT22;12052;53.478;10.182;2023-02-02T05:02:55;4.70;99.90
23744;DHT22;12052;53.478;10.182;2023-02-02T05:05:20;4.70;99.90
23744;DHT22;12052;53.478;10.182;2023-02-02T05:07:46;4.70;99.90
23744;DHT22;12052;53.478;10.182;2023-02-02T05:10:11;4.80;99.90
23744;DHT22;12052;53.478;10.182;2023-02-02T05:12:37;4.80;99.90
23744;DHT22;12052;53.478;10.182;2023-02-02T05:15:03;4.80;99.90
23744;DHT22;12052;53.478;10.182;2023-02-02T05:17:30;4.80;99.90
23744;DHT22;12052;53.478;10.182;2023-02-02T05:19:56;4.80;99.90
23744;DHT22;12052;53.478;10.182;2023-02-02T05:22:21;4.80;99.90
23744;DHT22;12052;53.478;10.182;2023-02-02T05:24:47;4.80;99.90
23744;DHT22;12052;53.478;10.182;2023-02-02T05:27:12;4.80;99.90
23744;DHT22;12052;53.478;10.182;2023-02-02T05:29:38;4.80;99.90
23744;DHT22;12052;53.478;10.182;2023-02-02T05:32:04;4.90;99.90
23744;DHT22;12052;53.478;10.182;2023-02-02T05:34:29;4.90;99.90
23744;DHT22;12052;53.478;10.182;2023-02-02T05:36:55;4.90;99.90
23744;DHT22;12052;53.478;10.182;2023-02-02T05:39:20;4.90;99.90
23744;DHT22;12052;53.478;10.182;2023-02-02T05:41:46;4.90;99.90
23744;DHT22;12052;53.478;10.182;2023-02-02T05:44:13;4.90;99.90
23744;DHT22;12052;53.478;10.182;2023-02-02T05:46:38;4.90;99.90
23744;DHT22;12052;53.478;10.182;2023-02-02T05:49:05;4.60;99.90
23744;DHT22;12052;53.478;10.182;2023-02-02T05:51:33;4.50;99.90
23744;DHT22;12052;53.478;10.182;2023-02-02T05:54:03;4.50;99.90
23744;DHT22;12052;53.478;10.182;2023-02-02T05:56:29;4.40;99.90
23744;DHT22;12052;53.478;10.182;2023-02-02T05:58:54;4.40;99.90
23744;DHT22;12052;53.478;10.182;2023-02-02T06:01:20;4.40;99.90
23744;DHT22;12052;53.478;10.182;2023-02-02T06:03:46;4.50;99.90
23744;DHT22;12052;53.478;10.182;2023-02-02T06:06:12;4.40;99.90
23744;DHT22;12052;53.478;10.182;2023-02-02T06:08:38;4.50;99.90
23744;DHT22;12052;53.478;10.182;2023-02-02T06:11:11;4.60;99.90
23744;DHT22;12052;53.478;10.182;2023-02-02T06:13:37;4.60;99.90
23744;DHT22;12052;53.478;10.182;2023-02-02T06:16:02;4.60;99.90
23744;DHT22;12052;53.478;10.182;2023-02-02T06:18:28;4.60;99.90
23744;DHT22;12052;53.478;10.182;2023-02-02T06:20:58;4.60;99.90
23744;DHT22;12052;53.478;10.182;2023-02-02T06:23:23;4.60;99.90
23744;DHT22;12052;53.478;10.182;2023-02-02T06:25:49;4.60;99.90
23744;DHT22;12052;53.478;10.182;2023-02-02T06:28:15;4.60;99.90
23744;DHT22;12052;53.478;10.182;2023-02-02T06:30:40;4.70;99.90
23744;DHT22;12052;53.478;10.182;2023-02-02T06:33:06;4.70;99.90
23744;DHT22;12052;53.478;10.182;2023-02-02T06:35:32;4.70;99.90
23744;DHT22;12052;53.478;10.182;2023-02-02T06:37:57;4.80;99.90
23744;DHT22;12052;53.478;10.182;2023-02-02T06:40:24;4.80;99.90
23744;DHT22;12052;53.478;10.182;2023-02-02T06:42:58;4.80;99.90
23744;DHT22;12052;53.478;10.182;2023-02-02T06:45:24;4.90;99.90
23744;DHT22;12052;53.478;10.182;2023-02-02T06:47:50;4.80;99.90
23744;DHT22;12052;53.478;10.182;2023-02-02T06:50:16;4.90;99.90
23744;DHT22;12052;53.478;10.182;2023-02-02T06:52:49;4.80;99.90
23744;DHT22;12052;53.478;10.182;2023-02-02T06:55:16;4.90;99.90
23744;DHT22;12052;53.478;10.182;2023-02-02T06:57:42;4.90;99.90
23744;DHT22;12052;53.478;10.182;2023-02-02T07:00:09;4.90;99.90
23744;DHT22;12052;53.478;10.182;2023-02-02T07:02:35;4.90;99.90
23744;DHT22;12052;53.478;10.182;2023-02-02T07:05:01;4.90;99.90
23744;DHT22;12052;53.478;10.182;2023-02-02T07:07:27;5.00;99.90
23744;DHT22;12052;53.478;10.182;2023-02-02T07:09:55;5.00;99.90
23744;DHT22;12052;53.478;10.182;2023-02-02T07:12:21;4.90;99.90
23744;DHT22;12052;53.478;10.182;2023-02-02T07:14:48;5.00;99.90
23744;DHT22;12052;53.478;10.182;2023-02-02T07:17:14;4.90;99.90
23744;DHT22;12052;53.478;10.182;2023-02-02T07:19:40;4.90;99.90
23744;DHT22;12052;53.478;10.182;2023-02-02T07:22:05;4.90;99.90
23744;DHT22;12052;53.478;10.182;2023-02-02T07:24:31;4.90;99.90
23744;DHT22;12052;53.478;10.182;2023-02-02T07:26:57;4.90;99.90
23744;DHT22;12052;53.478;10.182;2023-02-02T07:29:23;4.90;99.90
23744;DHT22;12052;53.478;10.182;2023-02-02T07:31:49;4.90;99.90
23744;DHT22;12052;53.478;10.182;2023-02-02T07:34:15;4.80;99.90
23744;DHT22;12052;53.478;10.182;2023-02-02T07:36:40;4.90;99.90
23744;DHT22;12052;53.478;10.182;2023-02-02T07:39:06;4.90;99.90
23744;DHT22;12052;53.478;10.182;2023-02-02T07:41:34;4.90;99.90
23744;DHT22;12052;53.478;10.182;2023-02-02T07:44:00;4.90;99.90
23744;DHT22;12052;53.478;10.182;2023-02-02T07:46:26;4.90;99.90
23744;DHT22;12052;53.478;10.182;2023-02-02T07:48:53;4.90;99.90
23744;DHT22;12052;53.478;10.182;2023-02-02T07:51:23;4.90;99.90
23744;DHT22;12052;53.478;10.182;2023-02-02T07:53:52;4.90;99.90
23744;DHT22;12052;53.478;10.182;2023-02-02T07:56:20;4.90;99.90
23744;DHT22;12052;53.478;10.182;2023-02-02T07:58:46;4.90;99.90
23744;DHT22;12052;53.478;10.182;2023-02-02T08:01:14;5.00;99.90
23744;DHT22;12052;53.478;10.182;2023-02-02T08:03:41;5.00;99.90
23744;DHT22;12052;53.478;10.182;2023-02-02T08:06:24;5.10;99.90
23744;DHT22;12052;53.478;10.182;2023-02-02T08:08:51;5.10;99.90
23744;DHT22;12052;53.478;10.182;2023-02-02T08:11:18;5.10;99.90
23744;DHT22;12052;53.478;10.182;2023-02-02T08:13:48;5.10;99.90
23744;DHT22;12052;53.478;10.182;2023-02-02T08:16:14;5.10;99.90
23744;DHT22;12052;53.478;10.182;2023-02-02T08:18:40;5.10;99.90
23744;DHT22;12052;53.478;10.182;2023-02-02T08:21:07;5.10;99.90
23744;DHT22;12052;53.478;10.182;2023-02-02T08:23:33;5.10;99.90
23744;DHT22;12052;53.478;10.182;2023-02-02T08:26:21;5.10;99.90
23744;DHT22;12052;53.478;10.182;2023-02-02T08:28:52;5.10;99.90
23744;DHT22;12052;53.478;10.182;2023-02-02T08:31:21;5.10;99.90
23744;DHT22;12052;53.478;10.182;2023-02-02T08:33:47;5.20;99.90
23744;DHT22;12052;53.478;10.182;2023-02-02T08:36:14;5.10;99.90
23744;DHT22;12052;53.478;10.182;2023-02-02T08:38:40;5.20;99.90
23744;DHT22;12052;53.478;10.182;2023-02-02T08:41:07;5.20;99.90
23744;DHT22;12052;53.478;10.182;2023-02-02T08:43:33;5.20;99.90
23744;DHT22;12052;53.478;10.182;2023-02-02T08:45:59;5.20;99.90
23744;DHT22;12052;53.478;10.182;2023-02-02T08:48:25;5.20;99.90
23744;DHT22;12052;53.478;10.182;2023-02-02T08:50:56;5.30;99.90
23744;DHT22;12052;53.478;10.182;2023-02-02T08:53:22;5.30;99.90
23744;DHT22;12052;53.478;10.182;2023-02-02T08:56:15;5.20;99.90
23744;DHT22;12052;53.478;10.182;2023-02-02T08:58:47;5.30;99.90
23744;DHT22;12052;53.478;10.182;2023-02-02T09:01:21;5.30;99.90
23744;DHT22;12052;53.478;10.182;2023-02-02T09:03:47;5.30;99.90
23744;DHT22;12052;53.478;10.182;2023-02-02T09:06:17;5.30;99.90
23744;DHT22;12052;53.478;10.182;2023-02-02T09:08:44;5.40;99.90
23744;DHT22;12052;53.478;10.182;2023-02-02T09:11:16;5.50;99.90
23744;DHT22;12052;53.478;10.182;2023-02-02T09:13:43;5.60;99.90
23744;DHT22;12052;53.478;10.182;2023-02-02T09:16:15;5.70;99.90
23744;DHT22;12052;53.478;10.182;2023-02-02T09:18:41;5.70;99.90
23744;DHT22;12052;53.478;10.182;2023-02-02T09:21:11;5.80;99.90
23744;DHT22;12052;53.478;10.182;2023-02-02T09:23:39;5.80;99.90
23744;DHT22;12052;53.478;10.182;2023-02-02T09:26:16;5.90;99.90
23744;DHT22;12052;53.478;10.182;2023-02-02T09:28:47;6.00;99.90
23744;DHT22;12052;53.478;10.182;2023-02-02T09:31:13;6.00;99.90
23744;DHT22;12052;53.478;10.182;2023-02-02T09:33:39;6.00;99.90
23744;DHT22;12052;53.478;10.182;2023-02-02T09:36:13;6.00;99.90
23744;DHT22;12052;53.478;10.182;2023-02-02T09:38:40;6.00;99.90
23744;DHT22;12052;53.478;10.182;2023-02-02T09:47:16;5.90;99.90
23744;DHT22;12052;53.478;10.182;2023-02-02T09:49:58;6.00;99.90
23744;DHT22;12052;53.478;10.182;2023-02-02T09:52:29;6.10;99.90
23744;DHT22;12052;53.478;10.182;2023-02-02T09:55:15;6.10;99.90
23744;DHT22;12052;53.478;10.182;2023-02-02T09:57:47;6.20;99.90
23744;DHT22;12052;53.478;10.182;2023-02-02T10:00:33;6.30;99.90
23744;DHT22;12052;53.478;10.182;2023-02-02T10:03:03;6.50;99.90
23744;DHT22;12052;53.478;10.182;2023-02-02T10:05:56;6.50;99.90
23744;DHT22;12052;53.478;10.182;2023-02-02T10:08:46;6.60;99.90
23744;DHT22;12052;53.478;10.182;2023-02-02T10:13:55;6.60;99.90
23744;DHT22;12052;53.478;10.182;2023-02-02T10:16:24;6.50;99.90
23744;DHT22;12052;53.478;10.182;2023-02-02T10:18:58;6.40;99.90
23744;DHT22;12052;53.478;10.182;2023-02-02T10:22:18;6.40;99.90
23744;DHT22;12052;53.478;10.182;2023-02-02T10:24:25;6.50;99.90
23744;DHT22;12052;53.478;10.182;2023-02-02T10:27:07;6.50;99.90
23744;DHT22;12052;53.478;10.182;2023-02-02T10:29:58;6.60;99.90
23744;DHT22;12052;53.478;10.182;2023-02-02T10:32:26;6.60;99.90
23744;DHT22;12052;53.478;10.182;2023-02-02T10:37:43;6.70;99.90
23744;DHT22;12052;53.478;10.182;2023-02-02T10:46:44;6.80;99.90
23744;DHT22;12052;53.478;10.182;2023-02-02T10:51:40;6.70;99.90
23744;DHT22;12052;53.478;10.182;2023-02-02T10:57:15;6.90;99.90
23744;DHT22;12052;53.478;10.182;2023-02-02T11:02:51;7.00;99.90
23744;DHT22;12052;53.478;10.182;2023-02-02T11:05:27;7.10;99.90
23744;DHT22;12052;53.478;10.182;2023-02-02T11:10:41;7.00;99.90
23744;DHT22;12052;53.478;10.182;2023-02-02T11:13:13;6.90;99.90
23744;DHT22;12052;53.478;10.182;2023-02-02T11:15:40;6.80;99.90
23744;DHT22;12052;53.478;10.182;2023-02-02T11:18:14;6.80;99.90
23744;DHT22;12052;53.478;10.182;2023-02-02T11:20:49;6.80;99.90
23744;DHT22;12052;53.478;10.182;2023-02-02T11:23:17;6.80;99.90
23744;DHT22;12052;53.478;10.182;2023-02-02T11:25:44;6.80;99.90
23744;DHT22;12052;53.478;10.182;2023-02-02T11:28:18;6.90;99.90
23744;DHT22;12052;53.478;10.182;2023-02-02T11:30:49;7.00;99.90
23744;DHT22;12052;53.478;10.182;2023-02-02T11:33:31;7.00;99.90
23744;DHT22;12052;53.478;10.182;2023-02-02T11:36:02;7.10;99.90
23744;DHT22;12052;53.478;10.182;2023-02-02T11:38:29;7.10;99.90
23744;DHT22;12052;53.478;10.182;2023-02-02T11:41:03;7.20;99.90
23744;DHT22;12052;53.478;10.182;2023-02-02T11:43:46;7.30;99.90
23744;DHT22;12052;53.478;10.182;2023-02-02T11:46:33;7.30;99.90
23744;DHT22;12052;53.478;10.182;2023-02-02T11:49:13;7.40;99.90
23744;DHT22;12052;53.478;10.182;2023-02-02T11:51:41;7.40;99.90
23744;DHT22;12052;53.478;10.182;2023-02-02T11:54:20;7.50;99.90
23744;DHT22;12052;53.478;10.182;2023-02-02T11:56:50;7.40;99.90
23744;DHT22;12052;53.478;10.182;2023-02-02T12:02:29;7.50;99.90
23744;DHT22;12052;53.478;10.182;2023-02-02T12:05:33;7.50;99.90
23744;DHT22;12052;53.478;10.182;2023-02-02T12:07:58;7.50;99.90
23744;DHT22;12052;53.478;10.182;2023-02-02T12:10:25;7.30;99.90
23744;DHT22;12052;53.478;10.182;2023-02-02T12:13:09;7.30;99.90
23744;DHT22;12052;53.478;10.182;2023-02-02T12:24:26;7.50;99.90
23744;DHT22;12052;53.478;10.182;2023-02-02T12:30:13;7.70;99.90
23744;DHT22;12052;53.478;10.182;2023-02-02T12:35:54;7.60;99.90
23744;DHT22;12052;53.478;10.182;2023-02-02T12:43:49;7.30;99.90
23744;DHT22;12052;53.478;10.182;2023-02-02T12:55:13;7.40;99.90
23744;DHT22;12052;53.478;10.182;2023-02-02T13:03:13;7.50;99.90
23744;DHT22;12052;53.478;10.182;2023-02-02T13:09:00;7.40;99.90
23744;DHT22;12052;53.478;10.182;2023-02-02T13:14:12;7.40;99.90
23744;DHT22;12052;53.478;10.182;2023-02-02T13:16:43;7.40;99.90
23744;DHT22;12052;53.478;10.182;2023-02-02T13:19:27;7.50;99.90
23744;DHT22;12052;53.478;10.182;2023-02-02T13:21:56;7.50;99.90
23744;DHT22;12052;53.478;10.182;2023-02-02T13:24:28;7.60;99.90
23744;DHT22;12052;53.478;10.182;2023-02-02T13:26:57;7.60;99.90
23744;DHT22;12052;53.478;10.182;2023-02-02T13:29:42;7.60;99.90
23744;DHT22;12052;53.478;10.182;2023-02-02T13:32:31;7.60;99.90
23744;DHT22;12052;53.478;10.182;2023-02-02T13:35:24;7.60;99.90
23744;DHT22;12052;53.478;10.182;2023-02-02T13:38:06;7.70;99.90
23744;DHT22;12052;53.478;10.182;2023-02-02T13:40:39;7.80;99.90
23744;DHT22;12052;53.478;10.182;2023-02-02T13:57:44;7.90;99.90
23744;DHT22;12052;53.478;10.182;2023-02-02T14:02:38;7.80;99.90
23744;DHT22;12052;53.478;10.182;2023-02-02T14:05:05;7.80;99.90
23744;DHT22;12052;53.478;10.182;2023-02-02T14:07:44;7.80;99.90
23744;DHT22;12052;53.478;10.182;2023-02-02T14:10:30;7.70;99.90
23744;DHT22;12052;53.478;10.182;2023-02-02T14:16:03;7.80;99.90
23744;DHT22;12052;53.478;10.182;2023-02-02T14:21:56;7.80;99.90
23744;DHT22;12052;53.478;10.182;2023-02-02T14:26:59;7.70;99.90
23744;DHT22;12052;53.478;10.182;2023-02-02T14:34:32;7.60;99.90
23744;DHT22;12052;53.478;10.182;2023-02-02T14:42:23;7.50;99.90
23744;DHT22;12052;53.478;10.182;2023-02-02T14:50:23;7.30;99.90
23744;DHT22;12052;53.478;10.182;2023-02-02T14:52:59;7.20;99.90
23744;DHT22;12052;53.478;10.182;2023-02-02T14:55:26;7.20;99.90
23744;DHT22;12052;53.478;10.182;2023-02-02T14:57:54;7.10;99.90
23744;DHT22;12052;53.478;10.182;2023-02-02T15:00:22;7.10;99.90
23744;DHT22;12052;53.478;10.182;2023-02-02T15:02:49;7.10;99.90
23744;DHT22;12052;53.478;10.182;2023-02-02T15:08:21;7.00;99.90
23744;DHT22;12052;53.478;10.182;2023-02-02T15:13:19;7.00;99.90
23744;DHT22;12052;53.478;10.182;2023-02-02T15:15:49;6.90;99.90
23744;DHT22;12052;53.478;10.182;2023-02-02T15:18:40;6.90;99.90
23744;DHT22;12052;53.478;10.182;2023-02-02T15:21:09;6.90;99.90
23744;DHT22;12052;53.478;10.182;2023-02-02T15:23:45;6.90;99.90
23744;DHT22;12052;53.478;10.182;2023-02-02T15:29:15;6.80;99.90
23744;DHT22;12052;53.478;10.182;2023-02-02T15:31:47;6.70;99.90
23744;DHT22;12052;53.478;10.182;2023-02-02T15:37:03;6.60;99.90
23744;DHT22;12052;53.478;10.182;2023-02-02T15:39:36;6.60;99.90
23744;DHT22;12052;53.478;10.182;2023-02-02T15:42:12;6.50;99.90
23744;DHT22;12052;53.478;10.182;2023-02-02T15:44:58;6.50;99.90
23744;DHT22;12052;53.478;10.182;2023-02-02T15:47:29;6.40;99.90
23744;DHT22;12052;53.478;10.182;2023-02-02T15:49:56;6.40;99.90
23744;DHT22;12052;53.478;10.182;2023-02-02T15:52:30;6.40;99.90
23744;DHT22;12052;53.478;10.182;2023-02-02T15:55:00;6.30;99.90
23744;DHT22;12052;53.478;10.182;2023-02-02T15:59:51;6.20;99.90
23744;DHT22;12052;53.478;10.182;2023-02-02T16:04:51;6.10;99.90
23744;DHT22;12052;53.478;10.182;2023-02-02T16:07:31;6.10;99.90
23744;DHT22;12052;53.478;10.182;2023-02-02T16:10:03;6.10;99.90
23744;DHT22;12052;53.478;10.182;2023-02-02T16:12:29;6.00;99.90
23744;DHT22;12052;53.478;10.182;2023-02-02T16:14:55;6.00;99.90
23744;DHT22;12052;53.478;10.182;2023-02-02T16:17:27;6.00;99.90
23744;DHT22;12052;53.478;10.182;2023-02-02T16:20:02;6.00;99.90
23744;DHT22;12052;53.478;10.182;2023-02-02T16:22:33;6.00;99.90
23744;DHT22;12052;53.478;10.182;2023-02-02T16:25:02;5.90;99.90
23744;DHT22;12052;53.478;10.182;2023-02-02T16:27:30;5.90;99.90
23744;DHT22;12052;53.478;10.182;2023-02-02T16:30:00;5.80;99.90
23744;DHT22;12052;53.478;10.182;2023-02-02T16:32:31;5.80;99.90
23744;DHT22;12052;53.478;10.182;2023-02-02T16:34:58;5.70;99.90
23744;DHT22;12052;53.478;10.182;2023-02-02T16:37:31;5.60;99.90
23744;DHT22;12052;53.478;10.182;2023-02-02T16:40:26;5.60;99.90
23744;DHT22;12052;53.478;10.182;2023-02-02T16:43:06;5.60;99.90
23744;DHT22;12052;53.478;10.182;2023-02-02T16:45:46;5.50;99.90
23744;DHT22;12052;53.478;10.182;2023-02-02T16:56:34;5.40;99.90
23744;DHT22;12052;53.478;10.182;2023-02-02T16:59:20;5.30;99.90
23744;DHT22;12052;53.478;10.182;2023-02-02T17:01:51;5.30;99.90
23744;DHT22;12052;53.478;10.182;2023-02-02T17:04:26;5.30;99.90
23744;DHT22;12052;53.478;10.182;2023-02-02T17:06:54;5.20;99.90
23744;DHT22;12052;53.478;10.182;2023-02-02T17:09:36;5.20;99.90
23744;DHT22;12052;53.478;10.182;2023-02-02T17:17:46;5.10;99.90
23744;DHT22;12052;53.478;10.182;2023-02-02T17:20:13;5.00;99.90
23744;DHT22;12052;53.478;10.182;2023-02-02T17:22:44;5.00;99.90
23744;DHT22;12052;53.478;10.182;2023-02-02T17:25:24;5.00;99.90
23744;DHT22;12052;53.478;10.182;2023-02-02T17:27:51;5.00;99.90
23744;DHT22;12052;53.478;10.182;2023-02-02T17:30:18;4.90;99.90
23744;DHT22;12052;53.478;10.182;2023-02-02T17:32:44;4.90;99.90
23744;DHT22;12052;53.478;10.182;2023-02-02T17:35:18;4.90;99.90
23744;DHT22;12052;53.478;10.182;2023-02-02T17:37:44;4.80;99.90
23744;DHT22;12052;53.478;10.182;2023-02-02T17:40:16;4.80;99.90
23744;DHT22;12052;53.478;10.182;2023-02-02T17:42:43;4.70;99.90
23744;DHT22;12052;53.478;10.182;2023-02-02T17:45:22;4.70;99.90
23744;DHT22;12052;53.478;10.182;2023-02-02T17:47:51;4.60;99.90
23744;DHT22;12052;53.478;10.182;2023-02-02T17:50:17;4.60;99.90
23744;DHT22;12052;53.478;10.182;2023-02-02T17:52:43;4.60;99.90
23744;DHT22;12052;53.478;10.182;2023-02-02T17:55:26;4.60;99.90
23744;DHT22;12052;53.478;10.182;2023-02-02T17:57:52;4.60;99.90
23744;DHT22;12052;53.478;10.182;2023-02-02T18:00:21;4.60;99.90
23744;DHT22;12052;53.478;10.182;2023-02-02T18:02:49;4.60;99.90
23744;DHT22;12052;53.478;10.182;2023-02-02T18:05:16;4.60;99.90
23744;DHT22;12052;53.478;10.182;2023-02-02T18:07:42;4.70;99.90
23744;DHT22;12052;53.478;10.182;2023-02-02T18:10:12;4.70;99.90
23744;DHT22;12052;53.478;10.182;2023-02-02T18:12:38;4.70;99.90
23744;DHT22;12052;53.478;10.182;2023-02-02T18:15:05;4.70;99.90
23744;DHT22;12052;53.478;10.182;2023-02-02T18:17:33;4.70;99.90
23744;DHT22;12052;53.478;10.182;2023-02-02T18:19:59;4.70;99.90
23744;DHT22;12052;53.478;10.182;2023-02-02T18:22:25;4.70;99.90
23744;DHT22;12052;53.478;10.182;2023-02-02T18:24:50;4.70;99.90
23744;DHT22;12052;53.478;10.182;2023-02-02T18:27:16;4.70;99.90
23744;DHT22;12052;53.478;10.182;2023-02-02T18:29:48;4.70;99.90
23744;DHT22;12052;53.478;10.182;2023-02-02T18:32:14;4.70;99.90
23744;DHT22;12052;53.478;10.182;2023-02-02T18:34:40;4.60;99.90
23744;DHT22;12052;53.478;10.182;2023-02-02T18:37:06;4.70;99.90
23744;DHT22;12052;53.478;10.182;2023-02-02T18:39:32;4.70;99.90